Time;durP1;ratioP1;P1;durP2;ratioP2;P2;SDS_P1;SDS_P2;PMS_P1;PMS_P2;Temp;Humidity;BMP_temperature;BMP_pressure;BME280_temperature;BME280_humidity;BME280_pressure;Samples;Min_cycle;Max_cycle;Signal;HPM_P1;HPM_P2
2023/01/10 00:02:18;;;;;;;1.45;0.75;;;;;;;;;;5056919;28;20473;-83
2023/01/10 00:04:43;;;;;;;1.67;1.00;;;;;;;;;;5056759;28;20029;-82
2023/01/10 00:07:09;;;;;;;2.17;1.00;;;;;;;;;;5058287;28;20615;-83
2023/01/10 00:09:34;;;;;;;1.23;1.10;;;;;;;;;;5058431;28;20020;-82
2023/01/10 00:14:47;;;;;;;1.88;0.98;;;;;;;;;;5028315;28;20282;-83
2023/01/10 00:17:12;;;;;;;2.20;1.10;;;;;;;;;;5058558;28;20497;-82
2023/01/10 00:19:37;;;;;;;3.20;1.30;;;;;;;;;;5058025;28;20258;-84
2023/01/10 00:22:07;;;;;;;1.35;1.02;;;;;;;;;;5058757;28;20269;-84
2023/01/10 00:24:32;;;;;;;1.60;1.10;;;;;;;;;;5059928;28;20398;-84
2023/01/10 00:26:58;;;;;;;1.70;1.10;;;;;;;;;;5059188;28;20017;-85
2023/01/10 00:29:30;;;;;;;2.28;1.10;;;;;;;;;;5059742;28;20017;-83
2023/01/10 00:31:56;;;;;;;2.80;1.10;;;;;;;;;;5059704;28;20162;-84
2023/01/10 00:34:21;;;;;;;2.50;1.10;;;;;;;;;;5060046;28;20048;-85
2023/01/10 00:36:47;;;;;;;2.28;1.20;;;;;;;;;;5061246;28;20025;-84
2023/01/10 00:39:13;;;;;;;2.55;1.30;;;;;;;;;;5058621;28;20105;-83
2023/01/10 00:44:24;;;;;;;1.67;1.10;;;;;;;;;;5059214;28;20036;-83
2023/01/10 00:46:50;;;;;;;2.05;1.00;;;;;;;;;;5042016;28;20060;-83
2023/01/10 00:49:15;;;;;;;1.63;1.10;;;;;;;;;;5060508;28;20402;-85
2023/01/10 00:51:41;;;;;;;1.73;1.20;;;;;;;;;;5058296;28;20048;-84
2023/01/10 00:54:11;;;;;;;1.48;1.10;;;;;;;;;;5059294;28;20762;-83
2023/01/10 00:56:36;;;;;;;2.88;1.30;;;;;;;;;;5058748;28;20056;-83
2023/01/10 00:59:02;;;;;;;1.88;1.10;;;;;;;;;;5059545;28;20032;-83
2023/01/10 01:01:27;;;;;;;1.50;1.10;;;;;;;;;;5039953;28;20486;-83
2023/01/10 01:03:53;;;;;;;2.58;1.08;;;;;;;;;;5057891;28;20031;-84
2023/01/10 01:06:18;;;;;;;2.72;1.20;;;;;;;;;;5056173;28;20079;-85
2023/01/10 01:08:43;;;;;;;3.47;1.10;;;;;;;;;;5058814;28;20034;-85
2023/01/10 01:11:08;;;;;;;2.72;1.30;;;;;;;;;;5057914;28;20439;-84
2023/01/10 01:13:35;;;;;;;2.33;1.40;;;;;;;;;;5058403;28;20033;-83
2023/01/10 01:16:00;;;;;;;5.25;1.30;;;;;;;;;;5057758;28;20104;-83
2023/01/10 01:18:26;;;;;;;3.88;1.58;;;;;;;;;;5039953;28;20059;-84
2023/01/10 01:20:53;;;;;;;6.53;2.10;;;;;;;;;;5057503;28;20107;-84
2023/01/10 01:23:19;;;;;;;4.65;2.40;;;;;;;;;;5058076;28;20036;-84
2023/01/10 01:25:48;;;;;;;5.28;2.63;;;;;;;;;;5057725;28;20029;-83
2023/01/10 01:28:13;;;;;;;7.43;2.50;;;;;;;;;;5058802;28;20051;-85
2023/01/10 01:30:39;;;;;;;10.27;3.10;;;;;;;;;;5058580;28;20537;-83
2023/01/10 01:33:04;;;;;;;5.55;2.40;;;;;;;;;;5059069;28;20512;-81
2023/01/10 01:35:29;;;;;;;5.07;2.33;;;;;;;;;;5058867;28;20093;-82
2023/01/10 01:37:54;;;;;;;4.55;2.40;;;;;;;;;;5057610;28;20033;-84
2023/01/10 01:40:21;;;;;;;4.78;2.10;;;;;;;;;;5057755;28;20144;-83
2023/01/10 01:42:47;;;;;;;5.32;2.70;;;;;;;;;;5039377;28;20115;-83
2023/01/10 01:45:12;;;;;;;4.80;2.60;;;;;;;;;;5056781;28;20106;-83
2023/01/10 01:47:45;;;;;;;7.90;2.63;;;;;;;;;;5057497;28;20033;-83
2023/01/10 01:50:27;;;;;;;8.20;2.53;;;;;;;;;;5056982;28;20481;-83
2023/01/10 01:52:55;;;;;;;4.45;2.05;;;;;;;;;;5056772;28;20094;-83
2023/01/10 01:55:24;;;;;;;4.07;2.08;;;;;;;;;;5057097;28;20025;-83
2023/01/10 01:57:51;;;;;;;3.75;1.63;;;;;;;;;;5039638;28;20434;-83
2023/01/10 02:00:16;;;;;;;7.88;1.70;;;;;;;;;;5056987;28;20023;-83
2023/01/10 02:02:48;;;;;;;3.58;1.35;;;;;;;;;;5039471;28;20481;-84
2023/01/10 02:05:16;;;;;;;3.05;1.52;;;;;;;;;;5057987;28;20046;-82
2023/01/10 02:07:44;;;;;;;3.40;1.52;;;;;;;;;;5059009;28;20497;-83
2023/01/10 02:10:19;;;;;;;2.88;1.38;;;;;;;;;;5059132;28;20040;-81
2023/01/10 02:12:49;;;;;;;2.10;1.27;;;;;;;;;;5040988;28;20025;-82
2023/01/10 02:15:15;;;;;;;2.53;1.50;;;;;;;;;;5058778;28;20107;-82
2023/01/10 02:17:40;;;;;;;4.30;1.50;;;;;;;;;;5058184;28;20025;-82
2023/01/10 02:20:07;;;;;;;4.25;1.70;;;;;;;;;;5041202;28;20415;-82
2023/01/10 02:22:54;;;;;;;3.03;1.40;;;;;;;;;;5058663;28;20028;-81
2023/01/10 02:25:43;;;;;;;3.65;1.60;;;;;;;;;;5058781;28;20044;-81
2023/01/10 02:28:32;;;;;;;5.20;1.60;;;;;;;;;;5057478;28;20100;-82
2023/01/10 02:31:00;;;;;;;2.08;1.20;;;;;;;;;;5059716;28;20116;-81
2023/01/10 02:33:38;;;;;;;3.13;1.50;;;;;;;;;;5059539;28;20033;-81
2023/01/10 02:36:23;;;;;;;2.70;1.23;;;;;;;;;;5059086;28;20032;-82
2023/01/10 02:39:15;;;;;;;4.07;1.50;;;;;;;;;;5058957;28;20025;-82
2023/01/10 02:42:12;;;;;;;4.60;1.45;;;;;;;;;;5041057;28;20029;-82
2023/01/10 02:45:13;;;;;;;4.15;1.65;;;;;;;;;;5057228;28;20032;-81
2023/01/10 02:47:40;;;;;;;2.95;1.80;;;;;;;;;;5056253;28;20044;-81
2023/01/10 02:50:29;;;;;;;2.30;1.33;;;;;;;;;;5038669;28;20037;-80
2023/01/10 02:53:01;;;;;;;2.33;1.30;;;;;;;;;;5038787;28;20116;-80
2023/01/10 02:55:37;;;;;;;5.38;1.77;;;;;;;;;;5039166;28;20060;-82
2023/01/10 02:58:24;;;;;;;3.00;1.75;;;;;;;;;;5058439;28;20037;-83
2023/01/10 03:01:07;;;;;;;2.45;1.50;;;;;;;;;;5041859;28;20040;-82
2023/01/10 03:03:51;;;;;;;2.97;1.75;;;;;;;;;;5062659;28;20047;-82
2023/01/10 03:06:21;;;;;;;3.58;1.65;;;;;;;;;;5060204;28;20021;-82
2023/01/10 03:09:01;;;;;;;3.80;1.60;;;;;;;;;;5060888;28;20043;-80
2023/01/10 03:11:42;;;;;;;2.45;1.60;;;;;;;;;;5061148;28;20029;-80
2023/01/10 03:14:22;;;;;;;3.53;1.67;;;;;;;;;;5044219;28;20053;-81
2023/01/10 03:16:54;;;;;;;5.53;1.63;;;;;;;;;;5060848;28;20043;-80
2023/01/10 03:19:23;;;;;;;3.80;1.50;;;;;;;;;;5061396;28;20037;-82
2023/01/10 03:21:52;;;;;;;3.05;1.70;;;;;;;;;;5062090;28;20024;-81
2023/01/10 03:24:26;;;;;;;4.68;1.80;;;;;;;;;;5061235;28;20025;-81
2023/01/10 03:26:57;;;;;;;5.25;2.13;;;;;;;;;;5061556;28;20021;-83
2023/01/10 03:29:30;;;;;;;2.53;1.60;;;;;;;;;;5059691;28;20085;-82
2023/01/10 03:32:01;;;;;;;2.88;2.13;;;;;;;;;;5059688;28;20025;-80
2023/01/10 03:34:26;;;;;;;5.18;2.22;;;;;;;;;;5043555;28;20029;-81
2023/01/10 03:37:14;;;;;;;4.60;1.98;;;;;;;;;;5059995;28;20028;-81
2023/01/10 03:39:48;;;;;;;5.63;1.92;;;;;;;;;;5061353;28;20021;-82
2023/01/10 03:45:29;;;;;;;3.17;1.98;;;;;;;;;;5028310;28;20482;-82
2023/01/10 03:47:57;;;;;;;2.53;1.50;;;;;;;;;;5059435;28;20108;-82
2023/01/10 03:50:24;;;;;;;4.20;2.10;;;;;;;;;;5060328;28;20393;-81
2023/01/10 03:52:50;;;;;;;4.30;1.63;;;;;;;;;;5058964;28;20028;-82
2023/01/10 03:55:20;;;;;;;3.72;1.83;;;;;;;;;;5060615;28;20091;-81
2023/01/10 03:57:46;;;;;;;5.70;1.98;;;;;;;;;;5060176;28;20036;-81
2023/01/10 04:00:12;;;;;;;4.40;1.85;;;;;;;;;;5060687;28;20104;-83
2023/01/10 04:02:38;;;;;;;4.65;2.05;;;;;;;;;;5060622;28;20029;-82
2023/01/10 04:05:04;;;;;;;8.95;2.05;;;;;;;;;;5060726;28;20047;-81
2023/01/10 04:07:29;;;;;;;3.22;1.85;;;;;;;;;;5060931;28;20028;-82
2023/01/10 04:09:54;;;;;;;4.40;2.20;;;;;;;;;;5061097;28;20047;-83
2023/01/10 04:12:19;;;;;;;6.63;2.40;;;;;;;;;;5059907;28;20025;-82
2023/01/10 04:14:45;;;;;;;3.13;2.00;;;;;;;;;;5060199;28;20040;-81
2023/01/10 04:17:12;;;;;;;3.08;2.08;;;;;;;;;;5060116;28;20036;-82
2023/01/10 04:19:37;;;;;;;3.58;2.20;;;;;;;;;;5041834;28;20028;-82
2023/01/10 04:22:04;;;;;;;4.97;2.20;;;;;;;;;;5059983;28;20543;-82
2023/01/10 04:24:29;;;;;;;8.52;2.20;;;;;;;;;;5060715;28;20029;-82
2023/01/10 04:26:55;;;;;;;4.75;2.30;;;;;;;;;;5060830;28;20071;-82
2023/01/10 04:29:20;;;;;;;4.00;2.13;;;;;;;;;;5061012;28;20028;-81
2023/01/10 04:31:45;;;;;;;3.87;2.13;;;;;;;;;;5042839;28;20293;-82
2023/01/10 04:34:10;;;;;;;3.37;2.30;;;;;;;;;;5061894;28;20639;-82
2023/01/10 04:36:36;;;;;;;5.30;2.10;;;;;;;;;;5061120;28;20631;-83
2023/01/10 04:39:02;;;;;;;2.83;1.85;;;;;;;;;;5059068;28;20187;-80
2023/01/10 04:41:27;;;;;;;10.93;2.10;;;;;;;;;;5060438;28;20027;-82
2023/01/10 04:43:53;;;;;;;4.93;2.13;;;;;;;;;;5060829;28;20020;-82
2023/01/10 04:46:18;;;;;;;6.07;2.20;;;;;;;;;;5060364;28;20021;-83
2023/01/10 04:48:43;;;;;;;3.22;1.98;;;;;;;;;;5060579;28;20025;-82
2023/01/10 04:51:08;;;;;;;7.88;2.70;;;;;;;;;;5059813;28;20032;-83
2023/01/10 04:53:34;;;;;;;6.47;2.03;;;;;;;;;;5059816;28;20351;-83
2023/01/10 04:56:04;;;;;;;3.50;2.38;;;;;;;;;;5059942;28;20036;-82
2023/01/10 04:58:34;;;;;;;3.88;2.60;;;;;;;;;;5041492;28;20486;-83
2023/01/10 05:01:13;;;;;;;6.15;2.45;;;;;;;;;;5041342;28;20036;-82
2023/01/10 05:03:38;;;;;;;4.47;2.42;;;;;;;;;;5059390;28;20033;-82
2023/01/10 05:06:04;;;;;;;4.82;2.60;;;;;;;;;;5060460;28;20116;-83
2023/01/10 05:08:30;;;;;;;4.85;2.30;;;;;;;;;;5059818;28;20388;-83
2023/01/10 05:10:55;;;;;;;6.25;2.60;;;;;;;;;;5059258;28;20025;-82
2023/01/10 05:13:20;;;;;;;4.38;2.50;;;;;;;;;;5059360;28;20525;-82
2023/01/10 05:15:45;;;;;;;6.80;2.70;;;;;;;;;;5059080;28;20394;-82
2023/01/10 05:18:11;;;;;;;5.43;2.77;;;;;;;;;;5059162;28;20028;-82
2023/01/10 05:20:36;;;;;;;6.00;2.83;;;;;;;;;;5058674;28;20262;-82
2023/01/10 05:23:01;;;;;;;2.87;1.93;;;;;;;;;;5059522;28;20384;-82
2023/01/10 05:25:26;;;;;;;6.18;2.10;;;;;;;;;;5059112;28;20278;-81
2023/01/10 05:27:52;;;;;;;8.05;3.10;;;;;;;;;;5059910;28;20025;-81
2023/01/10 05:30:17;;;;;;;5.47;2.30;;;;;;;;;;5058955;28;20082;-82
2023/01/10 05:32:42;;;;;;;5.28;2.80;;;;;;;;;;5041472;28;20024;-82
2023/01/10 05:35:08;;;;;;;7.78;3.20;;;;;;;;;;5059712;28;20025;-81
2023/01/10 05:37:33;;;;;;;5.97;2.85;;;;;;;;;;5040909;28;20071;-82
2023/01/10 05:39:58;;;;;;;7.05;2.40;;;;;;;;;;5058691;28;20027;-82
2023/01/10 05:42:24;;;;;;;4.80;2.63;;;;;;;;;;5059401;28;20024;-81
2023/01/10 05:44:49;;;;;;;5.93;2.60;;;;;;;;;;5058282;28;20074;-81
2023/01/10 05:47:14;;;;;;;3.53;2.28;;;;;;;;;;5059532;28;20246;-81
2023/01/10 05:49:39;;;;;;;4.38;2.90;;;;;;;;;;5058965;28;20488;-81
2023/01/10 05:52:05;;;;;;;6.72;2.83;;;;;;;;;;5057297;28;20474;-81
2023/01/10 05:54:30;;;;;;;4.97;2.50;;;;;;;;;;5058934;28;20029;-81
2023/01/10 05:56:56;;;;;;;9.52;3.00;;;;;;;;;;5039876;28;20021;-80
2023/01/10 05:59:21;;;;;;;4.90;2.85;;;;;;;;;;5059355;28;20025;-81
2023/01/10 06:01:46;;;;;;;7.15;2.90;;;;;;;;;;5058492;28;20031;-81
2023/01/10 06:04:13;;;;;;;6.97;2.65;;;;;;;;;;5058427;28;20033;-82
2023/01/10 06:06:38;;;;;;;6.10;2.55;;;;;;;;;;5058557;28;20094;-83
2023/01/10 06:09:03;;;;;;;4.80;2.80;;;;;;;;;;5039889;28;20498;-82
2023/01/10 06:11:29;;;;;;;5.50;2.50;;;;;;;;;;5059056;28;20425;-80
2023/01/10 06:13:57;;;;;;;5.30;2.80;;;;;;;;;;5058038;28;20040;-80
2023/01/10 06:16:23;;;;;;;5.63;2.83;;;;;;;;;;5058335;28;20394;-79
2023/01/10 06:18:49;;;;;;;3.92;2.53;;;;;;;;;;5057830;28;20021;-81
2023/01/10 06:21:14;;;;;;;5.30;2.83;;;;;;;;;;5058837;28;20040;-82
2023/01/10 06:23:40;;;;;;;5.18;2.97;;;;;;;;;;5058462;28;20064;-82
2023/01/10 06:26:05;;;;;;;6.05;2.80;;;;;;;;;;5057382;28;20096;-80
2023/01/10 06:28:31;;;;;;;5.97;3.10;;;;;;;;;;5040436;28;20024;-82
2023/01/10 06:30:56;;;;;;;4.65;2.92;;;;;;;;;;5058083;28;20021;-81
2023/01/10 06:33:21;;;;;;;7.73;2.97;;;;;;;;;;5058366;28;20032;-82
2023/01/10 06:35:47;;;;;;;5.22;3.05;;;;;;;;;;5059114;28;20278;-82
2023/01/10 06:38:13;;;;;;;6.65;3.17;;;;;;;;;;5061168;28;20052;-83
2023/01/10 06:40:38;;;;;;;5.03;2.80;;;;;;;;;;5043650;28;20029;-81
2023/01/10 06:43:03;;;;;;;6.57;3.05;;;;;;;;;;5062234;28;20044;-81
2023/01/10 06:45:29;;;;;;;5.63;2.88;;;;;;;;;;5062198;28;20020;-82
2023/01/10 06:47:54;;;;;;;5.72;2.90;;;;;;;;;;5044355;28;20049;-82
2023/01/10 06:50:20;;;;;;;5.63;2.92;;;;;;;;;;5063220;28;20371;-80
2023/01/10 06:52:45;;;;;;;6.03;2.85;;;;;;;;;;5062383;28;20025;-81
2023/01/10 06:55:10;;;;;;;4.18;2.92;;;;;;;;;;5062477;28;20036;-83
2023/01/10 06:57:37;;;;;;;8.70;3.25;;;;;;;;;;5063127;28;20028;-82
2023/01/10 07:00:05;;;;;;;6.90;3.30;;;;;;;;;;5062617;28;20036;-80
2023/01/10 07:02:30;;;;;;;4.03;2.47;;;;;;;;;;5044371;28;20501;-81
2023/01/10 07:04:55;;;;;;;4.97;2.90;;;;;;;;;;5060484;28;20025;-82
2023/01/10 07:07:21;;;;;;;15.02;3.03;;;;;;;;;;5044282;28;20029;-82
2023/01/10 07:09:46;;;;;;;3.90;2.78;;;;;;;;;;5043926;28;20056;-81
2023/01/10 07:12:11;;;;;;;6.68;2.60;;;;;;;;;;5060963;28;20049;-81
2023/01/10 07:14:36;;;;;;;5.50;2.80;;;;;;;;;;5062011;28;20393;-83
2023/01/10 07:17:02;;;;;;;4.93;2.80;;;;;;;;;;5060920;28;20028;-81
2023/01/10 07:19:27;;;;;;;6.68;2.67;;;;;;;;;;5061009;28;20024;-81
2023/01/10 07:21:52;;;;;;;5.27;2.63;;;;;;;;;;5062411;28;20021;-80
2023/01/10 07:24:18;;;;;;;5.28;2.67;;;;;;;;;;5061435;28;20265;-82
2023/01/10 07:26:43;;;;;;;4.88;2.70;;;;;;;;;;5042909;28;20024;-83
2023/01/10 07:29:08;;;;;;;5.60;2.88;;;;;;;;;;5061346;28;20055;-82
2023/01/10 07:31:34;;;;;;;5.85;2.95;;;;;;;;;;5061305;28;20029;-83
2023/01/10 07:33:59;;;;;;;4.53;2.83;;;;;;;;;;5064138;28;20105;-82
2023/01/10 07:36:24;;;;;;;6.63;3.05;;;;;;;;;;5063702;28;20036;-84
2023/01/10 07:38:49;;;;;;;5.25;2.90;;;;;;;;;;5063571;28;20029;-82
2023/01/10 07:41:15;;;;;;;7.10;2.77;;;;;;;;;;5063103;28;20025;-82
2023/01/10 07:43:40;;;;;;;4.73;2.83;;;;;;;;;;5062564;28;20258;-81
2023/01/10 07:46:10;;;;;;;5.90;2.70;;;;;;;;;;5062941;28;20299;-82
2023/01/10 07:48:37;;;;;;;5.25;2.90;;;;;;;;;;5044429;28;20292;-82
2023/01/10 07:51:03;;;;;;;5.43;2.88;;;;;;;;;;5062400;28;20025;-81
2023/01/10 07:53:28;;;;;;;4.50;2.60;;;;;;;;;;5062675;28;20025;-82
2023/01/10 07:55:57;;;;;;;7.25;3.10;;;;;;;;;;5062457;28;20032;-82
2023/01/10 07:58:23;;;;;;;5.75;3.03;;;;;;;;;;5063088;28;20090;-82
2023/01/10 08:00:49;;;;;;;4.47;2.58;;;;;;;;;;5063756;28;20104;-82
2023/01/10 08:03:15;;;;;;;4.90;2.85;;;;;;;;;;5062578;28;20025;-82
2023/01/10 08:05:40;;;;;;;9.38;2.85;;;;;;;;;;5061551;28;20021;-82
2023/01/10 08:08:11;;;;;;;4.88;3.00;;;;;;;;;;5062843;28;20043;-82
2023/01/10 08:10:38;;;;;;;4.95;2.55;;;;;;;;;;5063389;28;20033;-82
2023/01/10 08:13:03;;;;;;;7.85;3.30;;;;;;;;;;5063272;28;20021;-82
2023/01/10 08:15:29;;;;;;;4.00;2.88;;;;;;;;;;5063234;28;20040;-80
2023/01/10 08:17:58;;;;;;;6.88;3.40;;;;;;;;;;5062622;28;20596;-82
2023/01/10 08:20:24;;;;;;;6.47;3.00;;;;;;;;;;5062070;28;20029;-82
2023/01/10 08:22:49;;;;;;;4.53;2.67;;;;;;;;;;5063135;28;20470;-82
2023/01/10 08:25:14;;;;;;;6.80;3.13;;;;;;;;;;5061629;28;20039;-83
2023/01/10 08:27:40;;;;;;;4.72;2.15;;;;;;;;;;5059949;28;20069;-84
2023/01/10 08:30:05;;;;;;;4.65;2.50;;;;;;;;;;5061327;28;20046;-82
2023/01/10 08:32:31;;;;;;;4.00;2.38;;;;;;;;;;5059966;28;20028;-80
2023/01/10 08:34:56;;;;;;;4.75;2.45;;;;;;;;;;5060795;28;20081;-82
2023/01/10 08:37:22;;;;;;;7.53;2.63;;;;;;;;;;5061480;28;20138;-83
2023/01/10 08:39:47;;;;;;;6.00;2.33;;;;;;;;;;5061278;28;20017;-81
2023/01/10 08:42:13;;;;;;;7.85;2.58;;;;;;;;;;5061210;28;20071;-81
2023/01/10 08:44:38;;;;;;;5.60;2.75;;;;;;;;;;5061262;28;20100;-82
2023/01/10 08:47:03;;;;;;;3.78;2.28;;;;;;;;;;5061292;28;20080;-82
2023/01/10 08:49:28;;;;;;;4.38;2.42;;;;;;;;;;5061071;28;20493;-82
2023/01/10 08:51:54;;;;;;;3.95;2.40;;;;;;;;;;5061612;28;20040;-82
2023/01/10 08:54:19;;;;;;;4.38;2.47;;;;;;;;;;5060993;28;20016;-82
2023/01/10 08:56:44;;;;;;;4.65;2.58;;;;;;;;;;5060806;28;20036;-83
2023/01/10 08:59:09;;;;;;;3.87;2.43;;;;;;;;;;5062000;28;20086;-82
2023/01/10 09:01:35;;;;;;;5.13;2.40;;;;;;;;;;5044462;28;20262;-81
2023/01/10 09:04:00;;;;;;;4.50;2.63;;;;;;;;;;5044546;28;20079;-83
2023/01/10 09:06:25;;;;;;;7.50;2.40;;;;;;;;;;5061630;28;20017;-83
2023/01/10 09:08:50;;;;;;;2.53;2.17;;;;;;;;;;5061377;28;20038;-81
2023/01/10 09:11:16;;;;;;;4.35;2.40;;;;;;;;;;5060948;28;20083;-82
2023/01/10 09:13:41;;;;;;;5.43;2.33;;;;;;;;;;5060362;28;20025;-82
2023/01/10 09:16:07;;;;;;;5.40;2.35;;;;;;;;;;5061355;28;20021;-83
2023/01/10 09:18:33;;;;;;;4.97;1.92;;;;;;;;;;5061732;28;20084;-82
2023/01/10 09:20:58;;;;;;;3.30;1.70;;;;;;;;;;5060832;28;20116;-82
2023/01/10 09:23:23;;;;;;;2.58;1.70;;;;;;;;;;5061545;28;20025;-83
2023/01/10 09:25:52;;;;;;;3.17;1.50;;;;;;;;;;5061536;28;20025;-82
2023/01/10 09:28:18;;;;;;;2.38;1.60;;;;;;;;;;5060190;28;20510;-82
2023/01/10 09:30:44;;;;;;;2.92;1.73;;;;;;;;;;5059879;28;20433;-82
2023/01/10 09:33:09;;;;;;;3.30;1.50;;;;;;;;;;5059356;28;20029;-80
2023/01/10 09:35:37;;;;;;;4.07;1.38;;;;;;;;;;5041834;28;20093;-82
2023/01/10 09:38:03;;;;;;;2.10;1.17;;;;;;;;;;5059129;28;20390;-83
2023/01/10 09:40:56;;;;;;;1.08;0.80;;;;;;;;;;5059180;28;20029;-82
2023/01/10 09:43:51;;;;;;;2.45;0.93;;;;;;;;;;5059820;28;20057;-81
2023/01/10 09:46:43;;;;;;;3.20;0.90;;;;;;;;;;5058877;28;20017;-81
2023/01/10 09:49:20;;;;;;;1.50;0.90;;;;;;;;;;5059988;28;20059;-81
2023/01/10 09:51:48;;;;;;;2.17;1.00;;;;;;;;;;5059277;28;20104;-82
2023/01/10 09:54:25;;;;;;;1.95;0.90;;;;;;;;;;5041740;28;20459;-82
2023/01/10 09:56:51;;;;;;;3.72;1.38;;;;;;;;;;5041568;28;20147;-82
2023/01/10 09:59:21;;;;;;;2.90;1.23;;;;;;;;;;5059021;28;20053;-82
2023/01/10 10:01:50;;;;;;;3.17;1.40;;;;;;;;;;5059564;28;20021;-82
2023/01/10 10:04:26;;;;;;;2.42;1.23;;;;;;;;;;5041049;28;20029;-83
2023/01/10 10:06:52;;;;;;;5.15;1.55;;;;;;;;;;5058800;28;20029;-79
2023/01/10 10:09:25;;;;;;;4.07;1.75;;;;;;;;;;5058742;28;20402;-81
2023/01/10 10:12:17;;;;;;;3.42;1.77;;;;;;;;;;5040968;28;20031;-82
2023/01/10 10:15:01;;;;;;;3.55;2.00;;;;;;;;;;5041702;28;20051;-81
2023/01/10 10:17:45;;;;;;;4.53;2.13;;;;;;;;;;5060560;28;20540;-82
2023/01/10 10:20:25;;;;;;;6.22;1.85;;;;;;;;;;5061005;28;20085;-82
2023/01/10 10:23:20;;;;;;;4.50;1.95;;;;;;;;;;5060683;28;20386;-86
2023/01/10 10:26:01;;;;;;;5.13;2.03;;;;;;;;;;5057171;28;20025;-81
2023/01/10 10:28:44;;;;;;;5.43;2.17;;;;;;;;;;5059563;28;20504;-82
2023/01/10 10:31:21;;;;;;;3.03;2.17;;;;;;;;;;5056876;28;20025;-80
2023/01/10 10:34:09;;;;;;;9.52;2.78;;;;;;;;;;5056454;28;20441;-79
2023/01/10 10:36:47;;;;;;;4.35;2.08;;;;;;;;;;5038393;28;20092;-80
2023/01/10 10:39:23;;;;;;;5.88;2.00;;;;;;;;;;5056761;28;20039;-83
2023/01/10 10:41:52;;;;;;;7.07;2.13;;;;;;;;;;5056072;28;20071;-85
2023/01/10 10:44:30;;;;;;;4.07;2.10;;;;;;;;;;5038272;28;20060;-82
2023/01/10 10:46:58;;;;;;;3.40;1.85;;;;;;;;;;5056782;28;20027;-85
2023/01/10 10:49:54;;;;;;;4.90;1.90;;;;;;;;;;5056921;28;20024;-82
2023/01/10 10:52:26;;;;;;;2.50;1.63;;;;;;;;;;5056145;28;20461;-85
2023/01/10 10:54:52;;;;;;;5.47;1.50;;;;;;;;;;5056481;28;20028;-83
2023/01/10 10:57:21;;;;;;;5.70;1.60;;;;;;;;;;5056310;28;20474;-83
2023/01/10 10:59:48;;;;;;;3.80;1.27;;;;;;;;;;5056961;28;20068;-84
2023/01/10 11:02:26;;;;;;;3.00;1.20;;;;;;;;;;5056795;28;20046;-83
2023/01/10 11:04:55;;;;;;;3.30;1.10;;;;;;;;;;5038051;28;20033;-83
2023/01/10 11:07:22;;;;;;;5.30;1.27;;;;;;;;;;5056613;28;20123;-82
2023/01/10 11:09:58;;;;;;;2.90;1.15;;;;;;;;;;5056573;28;20035;-83
2023/01/10 11:12:31;;;;;;;4.60;1.02;;;;;;;;;;5056237;28;20107;-83
2023/01/10 11:14:57;;;;;;;3.50;1.40;;;;;;;;;;5056157;28;20474;-83
2023/01/10 11:17:29;;;;;;;5.13;1.27;;;;;;;;;;5056549;28;20029;-83
2023/01/10 11:19:57;;;;;;;3.45;1.40;;;;;;;;;;5037697;28;20072;-84
2023/01/10 11:22:23;;;;;;;7.53;1.35;;;;;;;;;;5056852;28;20510;-84
2023/01/10 11:24:52;;;;;;;4.40;1.38;;;;;;;;;;5059142;28;20117;-81
2023/01/10 11:27:25;;;;;;;3.35;1.20;;;;;;;;;;5058914;28;20367;-84
2023/01/10 11:30:00;;;;;;;4.10;1.30;;;;;;;;;;5059449;28;20055;-82
2023/01/10 11:32:38;;;;;;;3.22;1.20;;;;;;;;;;5041027;28;20120;-83
2023/01/10 11:35:16;;;;;;;6.78;1.40;;;;;;;;;;5058498;28;20064;-83
2023/01/10 11:37:41;;;;;;;4.70;1.30;;;;;;;;;;5059401;28;20025;-83
2023/01/10 11:40:19;;;;;;;5.13;1.80;;;;;;;;;;5058902;28;20498;-84
2023/01/10 11:42:45;;;;;;;3.10;1.52;;;;;;;;;;5059021;28;20017;-83
2023/01/10 11:45:25;;;;;;;7.25;1.90;;;;;;;;;;5059879;28;20021;-83
2023/01/10 11:48:21;;;;;;;4.60;1.77;;;;;;;;;;5042035;28;20051;-83
2023/01/10 11:50:50;;;;;;;4.28;1.92;;;;;;;;;;5042081;28;20021;-84
2023/01/10 11:53:37;;;;;;;6.25;1.95;;;;;;;;;;5059207;28;20036;-84
2023/01/10 11:56:03;;;;;;;8.60;1.73;;;;;;;;;;5059244;28;20024;-84
2023/01/10 11:58:32;;;;;;;6.70;1.80;;;;;;;;;;5060415;28;20036;-82
2023/01/10 12:00:58;;;;;;;8.80;2.00;;;;;;;;;;5058649;28;20025;-83
2023/01/10 12:03:31;;;;;;;7.65;1.98;;;;;;;;;;5058353;28;20028;-84
2023/01/10 12:06:01;;;;;;;7.28;1.92;;;;;;;;;;5040152;28;20025;-83
2023/01/10 12:08:31;;;;;;;10.85;1.80;;;;;;;;;;5058500;28;20119;-85
2023/01/10 12:11:06;;;;;;;2.92;1.60;;;;;;;;;;5059132;28;20029;-82
2023/01/10 12:13:47;;;;;;;8.13;1.98;;;;;;;;;;5058652;28;20146;-83
2023/01/10 12:16:21;;;;;;;3.88;1.70;;;;;;;;;;5058626;28;20076;-83
2023/01/10 12:18:47;;;;;;;6.05;1.50;;;;;;;;;;5041383;28;20037;-83
2023/01/10 12:21:16;;;;;;;2.38;1.42;;;;;;;;;;5058156;28;20037;-83
2023/01/10 12:23:43;;;;;;;3.42;1.17;;;;;;;;;;5058268;28;20021;-82
2023/01/10 12:26:12;;;;;;;7.15;2.03;;;;;;;;;;5058474;28;20025;-80
2023/01/10 12:28:41;;;;;;;6.18;1.77;;;;;;;;;;5040393;28;20413;-83
2023/01/10 12:31:13;;;;;;;8.43;1.90;;;;;;;;;;5040609;28;20032;-83
2023/01/10 12:33:45;;;;;;;5.57;1.88;;;;;;;;;;5058287;28;20573;-84
2023/01/10 12:36:23;;;;;;;4.75;1.40;;;;;;;;;;5058118;28;20029;-84
2023/01/10 12:39:18;;;;;;;5.45;1.65;;;;;;;;;;5058378;28;20028;-83
2023/01/10 12:45:13;;;;;;;5.28;1.50;;;;;;;;;;5058194;28;20556;-84
2023/01/10 12:48:03;;;;;;;5.63;1.63;;;;;;;;;;5058742;28;20104;-82
2023/01/10 12:50:33;;;;;;;2.50;1.10;;;;;;;;;;5058154;28;20059;-82
2023/01/10 12:53:08;;;;;;;9.15;1.70;;;;;;;;;;5058283;28;20111;-83
2023/01/10 12:55:44;;;;;;;6.47;1.40;;;;;;;;;;5058682;28;20029;-83
2023/01/10 12:58:22;;;;;;;4.20;1.20;;;;;;;;;;5058565;28;20051;-81
2023/01/10 13:00:59;;;;;;;5.53;1.52;;;;;;;;;;5058646;28;20029;-84
2023/01/10 13:03:28;;;;;;;4.30;1.00;;;;;;;;;;5058578;28;20120;-83
2023/01/10 13:05:56;;;;;;;4.85;1.25;;;;;;;;;;5057701;28;20033;-84
2023/01/10 13:08:24;;;;;;;7.05;1.67;;;;;;;;;;5057606;28;20059;-83
2023/01/10 13:10:52;;;;;;;12.23;1.70;;;;;;;;;;5057826;28;20036;-83
2023/01/10 13:13:35;;;;;;;8.88;1.60;;;;;;;;;;5040065;28;20028;-84
2023/01/10 13:16:16;;;;;;;5.57;1.42;;;;;;;;;;5059001;28;20027;-83
2023/01/10 13:18:57;;;;;;;7.38;1.50;;;;;;;;;;5057933;28;20021;-82
2023/01/10 13:21:22;;;;;;;4.53;1.20;;;;;;;;;;5057180;28;20025;-84
2023/01/10 13:23:50;;;;;;;5.68;1.50;;;;;;;;;;5039127;28;20029;-83
2023/01/10 13:26:16;;;;;;;9.88;1.80;;;;;;;;;;5039388;28;20025;-83
2023/01/10 13:28:58;;;;;;;5.25;1.27;;;;;;;;;;5057034;28;20078;-84
2023/01/10 13:31:34;;;;;;;7.68;1.63;;;;;;;;;;5057433;28;20462;-82
2023/01/10 13:33:59;;;;;;;3.35;1.10;;;;;;;;;;5056943;28;20029;-83
2023/01/10 13:36:28;;;;;;;3.05;1.20;;;;;;;;;;5057643;28;20033;-83
2023/01/10 13:39:00;;;;;;;12.45;1.73;;;;;;;;;;5057661;28;20432;-83
2023/01/10 13:45:00;;;;;;;4.80;1.17;;;;;;;;;;5058018;28;20115;-84
2023/01/10 13:47:37;;;;;;;4.05;1.30;;;;;;;;;;5057914;28;20024;-84
2023/01/10 13:50:41;;;;;;;5.65;1.13;;;;;;;;;;5057681;28;20031;-84
2023/01/10 13:53:07;;;;;;;6.38;1.40;;;;;;;;;;5039550;28;20047;-84
2023/01/10 13:55:38;;;;;;;4.88;1.33;;;;;;;;;;5039592;28;20025;-84
2023/01/10 13:58:13;;;;;;;6.93;1.35;;;;;;;;;;5057607;28;20037;-83
2023/01/10 14:03:42;;;;;;;7.40;1.33;;;;;;;;;;5057739;28;20048;-83
2023/01/10 14:06:39;;;;;;;5.97;1.40;;;;;;;;;;5058311;28;20111;-84
2023/01/10 14:09:33;;;;;;;4.45;1.27;;;;;;;;;;5058512;28;20078;-84
2023/01/10 14:12:02;;;;;;;5.15;1.60;;;;;;;;;;5059222;28;20021;-84
2023/01/10 14:14:31;;;;;;;6.68;1.70;;;;;;;;;;5058512;28;20025;-85
2023/01/10 14:17:09;;;;;;;5.30;1.00;;;;;;;;;;5058871;28;20024;-84
2023/01/10 14:19:35;;;;;;;3.15;1.02;;;;;;;;;;5040666;28;20029;-83
2023/01/10 14:22:02;;;;;;;8.05;1.40;;;;;;;;;;5057640;28;20028;-83
2023/01/10 14:24:29;;;;;;;5.20;1.42;;;;;;;;;;5057941;28;20044;-83
2023/01/10 14:26:59;;;;;;;3.40;1.20;;;;;;;;;;5058146;28;20036;-83
2023/01/10 14:29:29;;;;;;;5.18;1.20;;;;;;;;;;5057272;28;20478;-84
2023/01/10 14:31:55;;;;;;;5.30;1.30;;;;;;;;;;5057427;28;20032;-83
2023/01/10 14:34:30;;;;;;;5.55;1.25;;;;;;;;;;5039542;28;20151;-83
2023/01/10 14:37:03;;;;;;;3.53;1.00;;;;;;;;;;5057271;28;20021;-83
2023/01/10 14:39:29;;;;;;;2.97;1.00;;;;;;;;;;5058165;28;20068;-84
2023/01/10 14:42:01;;;;;;;3.90;1.17;;;;;;;;;;5057307;28;20025;-84
2023/01/10 14:44:34;;;;;;;3.03;1.20;;;;;;;;;;5057205;28;20474;-83
2023/01/10 14:47:01;;;;;;;4.43;1.60;;;;;;;;;;5057504;28;20108;-84
2023/01/10 14:49:34;;;;;;;3.92;1.13;;;;;;;;;;5039551;28;20643;-84
2023/01/10 14:52:22;;;;;;;4.13;1.30;;;;;;;;;;5057197;28;20501;-83
2023/01/10 14:54:54;;;;;;;5.40;1.38;;;;;;;;;;5039874;28;20420;-82
2023/01/10 14:57:22;;;;;;;4.18;1.33;;;;;;;;;;5040027;28;20031;-82
2023/01/10 14:59:50;;;;;;;2.25;1.13;;;;;;;;;;5061336;28;20025;-83
2023/01/10 15:02:21;;;;;;;4.97;1.20;;;;;;;;;;5061506;28;20025;-83
2023/01/10 15:05:20;;;;;;;9.27;1.42;;;;;;;;;;5061101;28;20150;-84
2023/01/10 15:07:46;;;;;;;4.90;1.17;;;;;;;;;;5018355;28;20137;-84
2023/01/10 15:10:19;;;;;;;5.30;1.60;;;;;;;;;;5061552;28;20507;-84
2023/01/10 15:12:45;;;;;;;5.97;2.00;;;;;;;;;;5061324;28;20103;-84
2023/01/10 15:15:18;;;;;;;6.60;1.73;;;;;;;;;;5060897;28;20051;-83
2023/01/10 15:17:44;;;;;;;4.53;1.73;;;;;;;;;;5061893;28;20097;-82
2023/01/10 15:20:18;;;;;;;6.93;1.77;;;;;;;;;;5061431;28;20029;-82